Time;durP1;ratioP1;P1;durP2;ratioP2;P2;SDS_P1;SDS_P2;PMS_P1;PMS_P2;Temp;Humidity;BMP_temperature;BMP_pressure;BME280_temperature;BME280_humidity;BME280_pressure;Samples;Min_cycle;Max_cycle;Signal;HPM_P1;HPM_P2
2021/10/04 00:02:22;;;;;;;2.70;1.00;;;15.60;99.50;;;;;;5038195;28;20526;-80
2021/10/04 00:04:49;;;;;;;1.95;0.90;;;15.60;99.40;;;;;;5042555;28;20128;-80
2021/10/04 00:07:17;;;;;;;2.50;0.77;;;15.60;99.40;;;;;;5044049;28;20050;-80
2021/10/04 00:09:44;;;;;;;1.80;0.60;;;15.50;99.40;;;;;;5048090;28;20045;-79
2021/10/04 00:12:11;;;;;;;1.75;0.65;;;15.50;99.30;;;;;;5043150;28;20137;-79
2021/10/04 00:14:40;;;;;;;2.90;0.80;;;15.50;99.30;;;;;;5046379;28;20123;-80
2021/10/04 00:17:07;;;;;;;1.27;0.55;;;15.50;99.30;;;;;;5046224;28;20045;-80
2021/10/04 00:19:34;;;;;;;1.42;0.70;;;15.50;99.30;;;;;;5045106;28;20135;-80
2021/10/04 00:22:02;;;;;;;1.20;0.50;;;15.50;99.20;;;;;;5046594;28;20149;-81
2021/10/04 00:24:29;;;;;;;1.83;0.70;;;15.50;99.10;;;;;;5049568;28;20041;-80
2021/10/04 00:26:56;;;;;;;1.50;0.60;;;15.50;99.20;;;;;;5042742;28;20042;-79
2021/10/04 00:29:23;;;;;;;1.65;0.73;;;15.50;99.10;;;;;;5045860;28;20083;-76
2021/10/04 00:31:51;;;;;;;1.63;0.55;;;15.50;99.20;;;;;;5052801;28;20124;-78
2021/10/04 00:34:19;;;;;;;1.73;0.73;;;15.50;99.00;;;;;;5044573;28;20131;-80
2021/10/04 00:36:46;;;;;;;2.13;0.60;;;15.50;99.10;;;;;;5046516;28;20131;-79
2021/10/04 00:39:13;;;;;;;1.98;0.80;;;15.50;99.20;;;;;;5045104;28;20148;-78
2021/10/04 00:41:41;;;;;;;1.23;0.50;;;15.50;99.20;;;;;;5042023;28;20132;-78
2021/10/04 00:44:08;;;;;;;1.70;0.60;;;15.50;99.30;;;;;;5043207;28;20041;-77
2021/10/04 00:46:35;;;;;;;1.40;0.70;;;15.50;99.30;;;;;;5043771;28;20125;-78
2021/10/04 00:49:04;;;;;;;1.98;0.73;;;15.40;99.20;;;;;;5042732;28;20127;-80
2021/10/04 00:51:31;;;;;;;1.55;0.60;;;15.40;99.20;;;;;;5042666;28;20558;-76
2021/10/04 00:53:58;;;;;;;1.58;0.65;;;15.50;99.20;;;;;;5042366;28;20120;-78
2021/10/04 00:56:26;;;;;;;2.03;0.70;;;15.40;99.20;;;;;;5043023;28;20049;-80
2021/10/04 00:58:53;;;;;;;1.70;0.80;;;15.40;99.30;;;;;;5045612;28;20124;-80
2021/10/04 01:01:20;;;;;;;1.73;0.77;;;15.40;99.40;;;;;;5044119;28;20123;-78
2021/10/04 01:03:48;;;;;;;1.35;0.60;;;15.40;99.40;;;;;;5042312;28;20124;-78
2021/10/04 01:06:16;;;;;;;2.30;0.80;;;15.40;99.50;;;;;;5042858;28;20069;-80
2021/10/04 01:08:43;;;;;;;2.65;0.80;;;15.40;99.50;;;;;;5045253;28;20461;-78
2021/10/04 01:11:10;;;;;;;2.03;0.65;;;15.40;99.50;;;;;;5045450;28;20136;-80
2021/10/04 01:13:38;;;;;;;2.25;0.55;;;15.40;99.60;;;;;;5041545;28;20132;-78
2021/10/04 01:16:05;;;;;;;1.30;0.57;;;15.40;99.60;;;;;;5041791;28;20578;-76
2021/10/04 01:18:34;;;;;;;1.85;0.80;;;15.40;99.60;;;;;;5045140;28;20120;-79
2021/10/04 01:21:03;;;;;;;2.00;0.60;;;15.40;99.70;;;;;;5045368;28;20041;-79
2021/10/04 01:23:30;;;;;;;1.38;0.57;;;15.40;99.80;;;;;;5043355;28;20471;-79
2021/10/04 01:25:58;;;;;;;1.88;0.60;;;15.50;99.70;;;;;;5044940;28;20471;-79
2021/10/04 01:28:25;;;;;;;1.60;0.70;;;15.50;99.90;;;;;;5043436;28;20132;-79
2021/10/04 01:30:53;;;;;;;1.60;0.60;;;15.60;99.70;;;;;;5045105;28;20044;-79
2021/10/04 01:33:20;;;;;;;2.28;0.70;;;15.60;99.70;;;;;;5037976;28;20404;-80
2021/10/04 01:35:47;;;;;;;2.80;1.20;;;15.60;99.70;;;;;;5047998;28;20060;-78
2021/10/04 01:38:16;;;;;;;2.88;1.10;;;15.60;99.70;;;;;;5042371;28;20132;-80
2021/10/04 01:40:44;;;;;;;2.08;0.80;;;15.60;99.70;;;;;;5041751;28;20132;-81
2021/10/04 01:43:11;;;;;;;1.48;0.57;;;15.60;99.90;;;;;;5049347;28;20359;-80
2021/10/04 01:45:39;;;;;;;2.15;0.63;;;15.70;99.90;;;;;;5041697;28;20056;-78
2021/10/04 01:48:06;;;;;;;1.85;0.60;;;15.60;99.90;;;;;;5041623;28;20069;-77
2021/10/04 01:50:36;;;;;;;1.33;0.70;;;15.70;99.90;;;;;;5044861;28;20128;-80
2021/10/04 01:53:07;;;;;;;1.80;0.80;;;15.70;99.90;;;;;;5045058;28;20458;-80
2021/10/04 01:55:35;;;;;;;2.22;0.65;;;15.70;99.90;;;;;;5041347;28;20075;-79
2021/10/04 01:58:03;;;;;;;2.15;0.77;;;15.60;99.90;;;;;;5041175;28;20061;-79
2021/10/04 02:00:30;;;;;;;1.60;0.60;;;15.60;99.90;;;;;;5044061;28;20143;-78
2021/10/04 02:02:58;;;;;;;2.30;0.80;;;15.50;99.90;;;;;;5044558;28;20125;-78
2021/10/04 02:05:27;;;;;;;2.20;0.70;;;15.50;99.90;;;;;;5043884;28;20475;-78
2021/10/04 02:07:55;;;;;;;2.20;0.82;;;15.50;99.90;;;;;;5044752;28;20465;-79
2021/10/04 02:10:25;;;;;;;2.08;0.70;;;15.40;99.90;;;;;;5042518;28;20127;-79
2021/10/04 02:12:55;;;;;;;2.10;0.70;;;15.40;99.90;;;;;;5041221;28;20558;-80
2021/10/04 02:15:23;;;;;;;3.42;0.90;;;15.30;99.90;;;;;;5042560;28;20052;-79
2021/10/04 02:17:50;;;;;;;1.80;0.80;;;15.30;99.90;;;;;;5044503;28;20136;-78
2021/10/04 02:20:20;;;;;;;2.35;0.90;;;15.20;99.90;;;;;;5042972;28;20462;-78
2021/10/04 02:22:48;;;;;;;2.85;0.75;;;15.10;99.90;;;;;;5041163;28;20137;-79
2021/10/04 02:25:16;;;;;;;1.83;0.65;;;15.10;99.90;;;;;;5040685;28;20109;-79
2021/10/04 02:27:44;;;;;;;1.83;0.80;;;15.10;99.90;;;;;;5044521;28;20123;-79
2021/10/04 02:30:18;;;;;;;1.33;0.63;;;15.00;99.90;;;;;;5043714;28;20119;-79
2021/10/04 02:32:45;;;;;;;2.40;0.80;;;15.00;99.90;;;;;;5044350;28;20520;-78
2021/10/04 02:35:12;;;;;;;2.25;0.82;;;15.00;99.90;;;;;;5043344;28;20124;-79
2021/10/04 02:37:39;;;;;;;1.75;0.75;;;15.00;99.90;;;;;;5037638;28;20077;-78
2021/10/04 02:40:10;;;;;;;2.35;0.75;;;15.00;99.90;;;;;;5044689;28;20116;-79
2021/10/04 02:42:38;;;;;;;2.75;1.00;;;15.00;99.90;;;;;;5040720;28;20128;-79
2021/10/04 02:45:07;;;;;;;2.17;0.90;;;15.00;99.90;;;;;;5040575;28;20566;-78
2021/10/04 02:47:37;;;;;;;1.75;0.80;;;15.00;99.90;;;;;;5044178;28;20131;-79
2021/10/04 02:50:08;;;;;;;2.08;1.00;;;15.10;99.90;;;;;;5043640;28;20136;-79
2021/10/04 02:52:35;;;;;;;2.10;0.88;;;15.10;99.90;;;;;;5042779;28;20120;-79
2021/10/04 02:55:03;;;;;;;3.25;0.93;;;15.10;99.90;;;;;;5043407;28;20105;-78
2021/10/04 02:57:30;;;;;;;1.83;0.85;;;15.20;99.90;;;;;;5043272;28;20140;-79
2021/10/04 02:59:57;;;;;;;2.35;0.85;;;15.20;99.90;;;;;;5044431;28;20129;-80
2021/10/04 03:02:26;;;;;;;1.75;0.80;;;15.20;99.90;;;;;;5041372;28;20133;-79
2021/10/04 03:04:54;;;;;;;1.77;0.70;;;15.20;99.90;;;;;;5038190;28;20137;-78
2021/10/04 03:07:21;;;;;;;3.03;1.00;;;15.20;99.90;;;;;;5039129;28;20091;-75
2021/10/04 03:09:48;;;;;;;2.33;0.80;;;15.20;99.90;;;;;;5034415;28;20128;-78
2021/10/04 03:12:15;;;;;;;1.90;0.73;;;15.20;99.90;;;;;;5039492;28;20469;-79
2021/10/04 03:14:42;;;;;;;2.40;1.08;;;15.30;99.90;;;;;;5034096;28;20475;-78
2021/10/04 03:17:09;;;;;;;2.22;0.80;;;15.30;99.90;;;;;;5039814;28;20045;-80
2021/10/04 03:19:36;;;;;;;2.08;0.90;;;15.30;99.90;;;;;;5034330;28;20119;-79
2021/10/04 03:22:06;;;;;;;2.45;1.10;;;15.30;99.90;;;;;;5033305;28;20126;-78
2021/10/04 03:24:34;;;;;;;3.08;0.95;;;15.30;99.90;;;;;;5040069;28;20051;-77
2021/10/04 03:27:01;;;;;;;2.13;0.80;;;15.20;99.90;;;;;;5040454;28;20076;-79
2021/10/04 03:29:28;;;;;;;2.15;0.85;;;15.20;99.90;;;;;;5032457;28;20128;-79
2021/10/04 03:31:56;;;;;;;2.05;1.02;;;15.20;99.90;;;;;;5040176;28;20087;-79
2021/10/04 03:34:23;;;;;;;2.22;0.80;;;15.20;99.90;;;;;;5038017;28;20139;-78
2021/10/04 03:36:50;;;;;;;2.10;0.80;;;15.20;99.90;;;;;;5038419;28;20077;-78
2021/10/04 03:39:19;;;;;;;2.33;1.00;;;15.20;99.90;;;;;;5041732;28;20053;-81
2021/10/04 03:41:47;;;;;;;2.22;0.90;;;15.20;99.90;;;;;;5044135;28;20059;-80
2021/10/04 03:44:14;;;;;;;1.83;0.80;;;15.10;99.90;;;;;;5043065;28;20083;-78
2021/10/04 03:46:41;;;;;;;2.15;0.90;;;14.90;99.90;;;;;;5040013;28;20136;-78
2021/10/04 03:49:08;;;;;;;1.67;0.80;;;14.80;99.90;;;;;;5042571;28;20160;-79
2021/10/04 03:51:35;;;;;;;2.72;0.80;;;14.70;99.90;;;;;;5044184;28;20133;-77
2021/10/04 03:54:02;;;;;;;2.67;0.82;;;14.60;99.90;;;;;;5044133;28;20130;-79
2021/10/04 03:56:30;;;;;;;1.83;0.60;;;14.60;99.90;;;;;;5041290;28;20398;-78
2021/10/04 03:58:57;;;;;;;3.70;0.93;;;14.50;99.90;;;;;;5040049;28;20121;-79
2021/10/04 04:01:24;;;;;;;1.48;0.65;;;14.50;99.90;;;;;;5037644;28;20562;-78
2021/10/04 04:03:52;;;;;;;2.22;0.70;;;14.40;99.90;;;;;;5043734;28;20124;-78
2021/10/04 04:06:19;;;;;;;2.17;0.70;;;14.40;99.90;;;;;;5045089;28;20045;-76
2021/10/04 04:08:47;;;;;;;1.45;0.65;;;14.40;99.90;;;;;;5047255;28;20040;-78
2021/10/04 04:11:14;;;;;;;1.73;0.70;;;14.30;99.90;;;;;;5046285;28;20143;-78
2021/10/04 04:13:43;;;;;;;2.42;0.80;;;14.30;99.90;;;;;;5045885;28;20099;-78
2021/10/04 04:16:10;;;;;;;1.73;0.77;;;14.30;99.90;;;;;;5041642;28;20125;-80
2021/10/04 04:18:37;;;;;;;1.23;0.60;;;14.30;99.90;;;;;;5046922;28;20043;-79
2021/10/04 04:21:04;;;;;;;2.45;0.70;;;14.30;99.90;;;;;;5040264;28;20129;-80
2021/10/04 04:23:31;;;;;;;1.73;0.60;;;14.30;99.90;;;;;;5045999;28;20123;-81
2021/10/04 04:25:59;;;;;;;1.42;0.63;;;14.20;99.90;;;;;;5048425;28;20127;-78
2021/10/04 04:28:26;;;;;;;1.83;0.82;;;14.20;99.90;;;;;;5053223;28;20135;-80
2021/10/04 04:30:54;;;;;;;3.22;0.88;;;14.20;99.90;;;;;;5055129;28;20325;-80
2021/10/04 04:33:21;;;;;;;2.15;0.80;;;14.10;99.90;;;;;;5055745;28;20041;-79
2021/10/04 04:35:48;;;;;;;2.22;0.90;;;14.10;99.90;;;;;;5056282;28;20581;-81
2021/10/04 04:38:15;;;;;;;1.50;0.65;;;14.00;99.90;;;;;;5055985;28;20144;-78
2021/10/04 04:40:43;;;;;;;1.77;0.60;;;14.00;99.90;;;;;;5054971;28;20132;-80
2021/10/04 04:43:10;;;;;;;1.25;0.55;;;14.00;99.90;;;;;;5055201;28;20140;-80
2021/10/04 04:45:38;;;;;;;2.95;0.80;;;14.00;99.90;;;;;;5055421;28;20136;-80
2021/10/04 04:48:07;;;;;;;2.83;0.82;;;14.00;99.90;;;;;;5054263;28;20138;-80
2021/10/04 04:50:34;;;;;;;1.60;0.70;;;14.00;99.90;;;;;;5055202;28;20132;-80
2021/10/04 04:53:01;;;;;;;2.03;0.80;;;14.00;99.90;;;;;;5054884;28;20045;-81
2021/10/04 04:55:28;;;;;;;1.52;0.73;;;14.00;99.90;;;;;;5054576;28;20127;-80
2021/10/04 04:57:55;;;;;;;2.70;0.80;;;14.10;99.90;;;;;;5054707;28;20092;-81
2021/10/04 05:00:22;;;;;;;2.88;0.75;;;14.10;99.90;;;;;;5054937;28;20120;-78
2021/10/04 05:02:49;;;;;;;1.70;0.80;;;14.10;99.90;;;;;;5054499;28;20128;-81
2021/10/04 05:05:19;;;;;;;1.92;0.88;;;14.10;99.90;;;;;;5054475;28;20135;-80
2021/10/04 05:07:47;;;;;;;2.13;0.88;;;14.10;99.90;;;;;;5054833;28;20174;-80
2021/10/04 05:10:14;;;;;;;2.13;0.90;;;14.00;99.90;;;;;;5054241;28;20095;-79
2021/10/04 05:12:41;;;;;;;1.92;0.82;;;14.00;99.90;;;;;;5054440;28;20439;-78
2021/10/04 05:15:10;;;;;;;2.20;0.80;;;13.90;99.90;;;;;;5054397;28;20562;-79
2021/10/04 05:17:37;;;;;;;2.20;0.82;;;13.90;99.90;;;;;;5054999;28;20105;-79
2021/10/04 05:20:06;;;;;;;3.25;1.10;;;13.90;99.90;;;;;;5055515;28;20144;-78
2021/10/04 05:22:36;;;;;;;2.92;1.20;;;13.90;99.90;;;;;;5054188;28;20127;-78
2021/10/04 05:25:05;;;;;;;2.40;0.90;;;13.90;99.90;;;;;;5053631;28;20513;-80
2021/10/04 05:27:32;;;;;;;1.98;0.88;;;13.90;99.90;;;;;;5054453;28;20686;-80
2021/10/04 05:30:00;;;;;;;3.10;1.10;;;13.90;99.90;;;;;;5054831;28;20132;-80
2021/10/04 05:32:27;;;;;;;2.33;1.10;;;14.00;99.90;;;;;;5053695;28;20132;-79
2021/10/04 05:34:54;;;;;;;3.22;1.40;;;14.00;99.90;;;;;;5054093;28;20132;-79
2021/10/04 05:37:21;;;;;;;2.92;1.30;;;14.00;99.90;;;;;;5053639;28;20140;-79
2021/10/04 05:39:49;;;;;;;3.50;1.42;;;14.00;99.90;;;;;;5054268;28;20124;-79
2021/10/04 05:42:16;;;;;;;3.45;1.23;;;14.10;99.90;;;;;;5054651;28;20139;-79
2021/10/04 05:44:45;;;;;;;2.63;1.13;;;14.00;99.90;;;;;;5053768;28;20083;-79
2021/10/04 05:47:13;;;;;;;2.13;0.93;;;14.00;99.90;;;;;;5040483;28;20045;-77
2021/10/04 05:49:40;;;;;;;3.00;1.10;;;14.00;99.90;;;;;;5033795;28;20056;-78
2021/10/04 05:52:07;;;;;;;2.90;1.20;;;14.00;99.90;;;;;;5033334;28;20136;-79
2021/10/04 05:54:34;;;;;;;2.20;1.10;;;13.90;99.90;;;;;;5034482;28;20132;-80
2021/10/04 05:57:03;;;;;;;3.05;1.30;;;13.90;99.90;;;;;;5033787;28;20088;-80
2021/10/04 05:59:30;;;;;;;2.97;1.20;;;13.90;99.90;;;;;;5033945;28;20132;-80
2021/10/04 06:01:57;;;;;;;2.72;1.20;;;13.80;99.90;;;;;;5033424;28;20447;-78
2021/10/04 06:04:24;;;;;;;2.60;1.50;;;13.80;99.90;;;;;;5033249;28;20132;-78
2021/10/04 06:06:51;;;;;;;3.30;1.35;;;13.70;99.90;;;;;;5033171;28;20128;-78
2021/10/04 06:09:19;;;;;;;2.50;1.17;;;13.70;99.90;;;;;;5033249;28;20128;-77
2021/10/04 06:11:46;;;;;;;2.60;1.00;;;13.60;99.90;;;;;;5033387;28;20132;-78
2021/10/04 06:14:15;;;;;;;2.00;0.90;;;13.60;99.90;;;;;;5033263;28;20132;-80
2021/10/04 06:16:42;;;;;;;2.13;1.00;;;13.60;99.90;;;;;;5038767;28;20128;-78
2021/10/04 06:19:09;;;;;;;3.03;1.35;;;13.60;99.90;;;;;;5052098;28;20049;-80
2021/10/04 06:21:36;;;;;;;3.15;1.40;;;13.60;99.90;;;;;;5052744;28;20059;-80
2021/10/04 06:24:03;;;;;;;2.72;1.20;;;13.60;99.90;;;;;;5052848;28;20124;-78
2021/10/04 06:26:31;;;;;;;3.92;1.40;;;13.60;99.90;;;;;;5052926;28;20044;-79
2021/10/04 06:28:58;;;;;;;2.78;1.50;;;13.60;99.90;;;;;;5051230;28;20144;-81
2021/10/04 06:31:27;;;;;;;2.38;1.10;;;13.60;99.90;;;;;;5043635;28;20145;-80
2021/10/04 06:33:54;;;;;;;3.00;1.42;;;13.60;99.90;;;;;;5052575;28;20167;-79
2021/10/04 06:36:22;;;;;;;2.95;1.60;;;13.60;99.90;;;;;;5052533;28;20573;-79
2021/10/04 06:38:49;;;;;;;2.80;1.40;;;13.60;99.90;;;;;;5052860;28;20052;-80
2021/10/04 06:41:16;;;;;;;2.75;1.30;;;13.60;99.90;;;;;;5052738;28;20055;-81
2021/10/04 06:43:43;;;;;;;3.58;1.30;;;13.70;99.90;;;;;;5052723;28;20562;-80
2021/10/04 06:46:11;;;;;;;3.38;1.30;;;13.70;99.90;;;;;;5050972;28;20049;-76
2021/10/04 06:48:40;;;;;;;3.00;1.50;;;13.70;99.90;;;;;;5052693;28;20399;-79
2021/10/04 06:51:07;;;;;;;3.17;1.70;;;13.80;99.90;;;;;;5052216;28;20505;-78
2021/10/04 06:53:35;;;;;;;2.97;1.70;;;13.80;99.90;;;;;;5052649;28;20148;-79
2021/10/04 06:56:02;;;;;;;3.10;1.55;;;13.90;99.90;;;;;;5052547;28;20077;-77
2021/10/04 06:58:29;;;;;;;3.13;1.50;;;13.90;99.90;;;;;;5052816;28;20132;-77
2021/10/04 07:00:56;;;;;;;4.03;1.70;;;13.90;99.90;;;;;;5039161;28;20525;-80
2021/10/04 07:03:23;;;;;;;3.92;1.80;;;13.90;99.90;;;;;;5032314;28;20133;-78
2021/10/04 07:05:53;;;;;;;3.95;1.77;;;14.00;99.90;;;;;;5032337;28;20088;-75
2021/10/04 07:08:20;;;;;;;4.03;1.80;;;14.00;99.90;;;;;;5043073;28;20081;-75
2021/10/04 07:10:47;;;;;;;3.55;1.80;;;14.00;99.90;;;;;;5052204;28;20140;-75
2021/10/04 07:13:14;;;;;;;3.03;1.70;;;14.00;99.90;;;;;;5054718;28;20137;-76
2021/10/04 07:15:41;;;;;;;3.72;1.67;;;14.00;99.90;;;;;;5056275;28;20106;-75
2021/10/04 07:18:08;;;;;;;4.55;1.73;;;14.00;99.90;;;;;;5056314;28;20088;-76
2021/10/04 07:20:36;;;;;;;3.72;1.70;;;14.00;99.90;;;;;;5056089;28;20132;-77
2021/10/04 07:23:05;;;;;;;3.88;1.52;;;14.00;99.90;;;;;;5056097;28;20077;-75
2021/10/04 07:25:32;;;;;;;2.88;1.50;;;14.10;99.90;;;;;;5056017;28;20456;-75
2021/10/04 07:28:00;;;;;;;3.63;1.70;;;14.10;99.90;;;;;;5052993;28;20112;-74
2021/10/04 07:30:27;;;;;;;3.60;1.90;;;14.10;99.90;;;;;;5043000;28;20056;-77
2021/10/04 07:32:56;;;;;;;3.67;1.33;;;14.20;99.90;;;;;;5033369;28;20323;-75
2021/10/04 07:35:24;;;;;;;3.10;1.67;;;14.20;99.90;;;;;;5033019;28;20054;-76
2021/10/04 07:37:51;;;;;;;3.55;1.60;;;14.20;99.90;;;;;;5033534;28;20140;-75
2021/10/04 07:40:22;;;;;;;4.32;1.85;;;14.30;99.90;;;;;;5032911;28;20146;-75
2021/10/04 07:42:49;;;;;;;3.28;1.73;;;14.30;99.90;;;;;;5032307;28;20107;-75
2021/10/04 07:45:16;;;;;;;2.80;1.45;;;14.30;99.90;;;;;;5039209;28;20132;-75
2021/10/04 07:47:44;;;;;;;4.05;1.70;;;14.30;99.90;;;;;;5052731;28;20465;-76
2021/10/04 07:50:14;;;;;;;3.85;1.40;;;14.30;99.90;;;;;;5053280;28;20053;-76
2021/10/04 07:52:42;;;;;;;3.38;1.70;;;14.30;99.90;;;;;;5053126;28;20052;-75
2021/10/04 07:55:10;;;;;;;2.53;1.10;;;14.30;99.90;;;;;;5051969;28;20143;-75
2021/10/04 07:57:39;;;;;;;2.28;1.08;;;14.30;99.90;;;;;;5052503;28;20476;-75
2021/10/04 08:00:09;;;;;;;2.13;0.90;;;14.30;99.90;;;;;;5050866;28;20210;-74
2021/10/04 08:02:36;;;;;;;5.57;2.20;;;14.30;99.90;;;;;;5050879;28;20088;-75
2021/10/04 08:05:04;;;;;;;3.42;1.45;;;14.20;99.90;;;;;;5035441;28;20053;-74
2021/10/04 08:07:31;;;;;;;2.03;0.90;;;14.30;99.90;;;;;;5031826;28;20128;-75
2021/10/04 08:09:58;;;;;;;2.28;0.80;;;14.30;99.90;;;;;;5041547;28;20067;-75
2021/10/04 08:12:25;;;;;;;2.05;0.90;;;14.20;99.90;;;;;;5052373;28;20124;-76
2021/10/04 08:14:54;;;;;;;2.60;1.00;;;14.20;99.90;;;;;;5052355;28;20096;-77
2021/10/04 08:17:21;;;;;;;2.40;1.05;;;14.20;99.90;;;;;;5055171;28;20073;-75
2021/10/04 08:19:49;;;;;;;2.28;1.08;;;14.20;99.90;;;;;;5052993;28;20490;-75
2021/10/04 08:22:16;;;;;;;2.38;1.10;;;14.20;99.90;;;;;;5051154;28;20128;-76
2021/10/04 08:24:44;;;;;;;2.78;1.02;;;14.20;99.90;;;;;;5049936;28;20136;-76
2021/10/04 08:27:11;;;;;;;2.80;1.20;;;14.20;99.90;;;;;;5052343;28;20775;-76
2021/10/04 08:29:38;;;;;;;2.00;1.00;;;14.30;99.90;;;;;;5051999;28;20506;-77
2021/10/04 08:32:07;;;;;;;2.70;1.20;;;14.30;99.90;;;;;;5051991;28;20132;-77
2021/10/04 08:34:34;;;;;;;3.10;1.27;;;14.30;99.90;;;;;;5051341;28;20055;-75
2021/10/04 08:37:01;;;;;;;2.67;1.20;;;14.30;99.90;;;;;;5051839;28;20537;-75
2021/10/04 08:39:29;;;;;;;3.53;1.60;;;14.40;99.90;;;;;;5042496;28;20140;-76
2021/10/04 08:41:56;;;;;;;3.25;1.60;;;14.40;99.90;;;;;;5031817;28;20489;-79
2021/10/04 08:44:24;;;;;;;3.35;1.60;;;14.40;99.90;;;;;;5031502;28;20562;-79
2021/10/04 08:46:51;;;;;;;3.05;1.50;;;14.40;99.90;;;;;;5031502;28;20290;-79
2021/10/04 08:49:20;;;;;;;3.13;1.33;;;14.30;99.90;;;;;;5031494;28;20148;-79
2021/10/04 08:51:50;;;;;;;3.60;1.50;;;14.20;99.90;;;;;;5032600;28;20045;-79
2021/10/04 08:54:24;;;;;;;2.70;1.30;;;14.10;99.90;;;;;;5051270;28;20056;-79
2021/10/04 08:56:52;;;;;;;2.28;1.08;;;14.00;99.90;;;;;;5051866;28;20103;-79
2021/10/04 08:59:19;;;;;;;3.45;1.23;;;13.90;99.90;;;;;;5051385;28;20549;-79
2021/10/04 09:01:47;;;;;;;3.00;1.17;;;13.80;99.90;;;;;;5050758;28;20168;-80
2021/10/04 09:04:21;;;;;;;2.90;1.13;;;13.80;99.90;;;;;;5051634;28;20139;-78
2021/10/04 09:06:49;;;;;;;2.80;1.10;;;13.80;99.90;;;;;;5046309;28;20045;-78
2021/10/04 09:09:17;;;;;;;3.10;1.20;;;13.70;99.90;;;;;;5030082;28;20057;-80
2021/10/04 09:11:47;;;;;;;2.85;0.95;;;13.70;99.90;;;;;;5030088;28;20463;-80
2021/10/04 09:14:18;;;;;;;2.10;0.90;;;13.70;99.90;;;;;;5030011;28;20072;-80
2021/10/04 09:16:57;;;;;;;2.33;1.00;;;13.70;99.90;;;;;;5029665;28;20168;-79
2021/10/04 09:19:30;;;;;;;3.72;1.00;;;13.80;99.90;;;;;;5030094;28;20056;-80
2021/10/04 09:22:13;;;;;;;3.60;0.90;;;13.80;99.90;;;;;;5036556;28;20052;-78
2021/10/04 09:24:43;;;;;;;2.85;0.90;;;13.80;99.90;;;;;;5049628;28;20455;-78
2021/10/04 09:27:32;;;;;;;1.55;0.70;;;13.80;99.90;;;;;;5048835;28;20574;-79
2021/10/04 09:30:01;;;;;;;2.80;0.75;;;13.80;99.90;;;;;;5049437;28;20132;-79
2021/10/04 09:32:34;;;;;;;2.28;0.90;;;13.80;99.90;;;;;;5049500;28;20073;-80
2021/10/04 09:35:24;;;;;;;2.38;0.90;;;13.80;99.90;;;;;;5048704;28;20132;-80
2021/10/04 09:37:55;;;;;;;2.00;0.70;;;13.80;99.90;;;;;;5047903;28;20103;-79
2021/10/04 09:40:36;;;;;;;2.28;0.77;;;13.80;99.90;;;;;;5049293;28;20557;-79
2021/10/04 09:43:05;;;;;;;1.63;0.70;;;13.90;99.90;;;;;;5049633;28;20120;-79
2021/10/04 09:45:34;;;;;;;1.98;0.80;;;13.90;99.90;;;;;;5049246;28;20045;-80
2021/10/04 09:48:13;;;;;;;1.77;0.68;;;13.90;99.90;;;;;;5048696;28;20140;-79
2021/10/04 09:50:44;;;;;;;1.70;0.50;;;13.90;99.90;;;;;;5047677;28;20136;-80
2021/10/04 09:53:13;;;;;;;1.08;0.45;;;13.90;99.90;;;;;;5049357;28;20140;-77
2021/10/04 09:55:43;;;;;;;1.38;0.50;;;13.90;99.90;;;;;;5048645;28;20140;-80
2021/10/04 09:58:14;;;;;;;1.02;0.40;;;13.90;99.90;;;;;;5048905;28;20048;-80
2021/10/04 10:00:44;;;;;;;0.85;0.40;;;13.90;99.90;;;;;;5048817;28;20056;-80
2021/10/04 10:03:14;;;;;;;0.88;0.30;;;13.90;99.90;;;;;;5049061;28;20581;-80
2021/10/04 10:05:46;;;;;;;1.55;0.55;;;13.90;99.90;;;;;;5050818;28;20044;-79
2021/10/04 10:08:15;;;;;;;1.77;0.50;;;14.00;99.90;;;;;;5049062;28;20048;-80
2021/10/04 10:10:46;;;;;;;1.92;0.77;;;14.00;99.90;;;;;;5048800;28;20418;-80
2021/10/04 10:13:16;;;;;;;1.60;0.60;;;14.00;99.90;;;;;;5048647;28;20127;-79
2021/10/04 10:15:47;;;;;;;1.70;0.60;;;14.10;99.90;;;;;;5048884;28;20179;-80
2021/10/04 10:18:22;;;;;;;1.20;0.50;;;14.10;99.90;;;;;;5030517;28;20052;-78
2021/10/04 10:20:58;;;;;;;1.10;0.50;;;14.10;99.90;;;;;;5037901;28;20132;-80
2021/10/04 10:23:48;;;;;;;1.25;0.60;;;14.20;99.90;;;;;;5028885;28;20053;-78
2021/10/04 10:26:37;;;;;;;1.52;0.63;;;14.30;99.90;;;;;;5028561;28;20087;-79
2021/10/04 10:29:26;;;;;;;2.25;0.60;;;14.40;99.90;;;;;;5028620;28;20053;-79
2021/10/04 10:32:23;;;;;;;1.27;0.52;;;14.50;99.90;;;;;;5028726;28;20053;-78
2021/10/04 10:34:56;;;;;;;1.52;0.60;;;14.60;99.90;;;;;;5028360;28;20048;-81
2021/10/04 10:37:30;;;;;;;1.70;0.60;;;14.70;99.90;;;;;;5027020;28;20077;-80
2021/10/04 10:40:02;;;;;;;2.13;0.70;;;14.80;99.90;;;;;;5028082;28;20152;-78
2021/10/04 10:42:33;;;;;;;1.83;0.77;;;14.80;99.90;;;;;;5028796;28;20088;-78
2021/10/04 10:45:18;;;;;;;1.15;0.50;;;14.90;99.90;;;;;;5029160;28;20093;-79
2021/10/04 10:48:06;;;;;;;0.50;0.30;;;14.90;99.90;;;;;;5032760;28;20051;-79
2021/10/04 10:50:45;;;;;;;0.70;0.38;;;15.00;99.90;;;;;;5029649;28;20156;-79
2021/10/04 10:53:20;;;;;;;1.00;0.45;;;15.00;99.90;;;;;;5032256;28;20593;-80
2021/10/04 10:55:55;;;;;;;1.60;0.47;;;15.10;99.90;;;;;;5032759;28;20487;-79
2021/10/04 10:58:24;;;;;;;1.48;0.45;;;15.10;99.90;;;;;;5033653;28;20455;-79
2021/10/04 11:01:17;;;;;;;2.00;0.70;;;15.10;99.90;;;;;;5033766;28;20140;-78
2021/10/04 11:03:55;;;;;;;1.85;0.50;;;15.20;99.90;;;;;;5043367;28;21000;-80
2021/10/04 11:06:40;;;;;;;1.25;0.45;;;15.20;99.90;;;;;;5052712;28;20459;-80
2021/10/04 11:09:09;;;;;;;1.75;0.60;;;15.20;99.90;;;;;;5050189;28;20064;-80
2021/10/04 11:11:36;;;;;;;1.42;0.50;;;15.20;99.90;;;;;;5033785;28;20076;-80
2021/10/04 11:14:16;;;;;;;1.33;0.47;;;15.20;99.90;;;;;;5033506;28;20049;-79
2021/10/04 11:16:48;;;;;;;1.10;0.40;;;15.20;99.90;;;;;;5033549;28;20045;-79
2021/10/04 11:19:29;;;;;;;1.58;0.50;;;15.20;99.90;;;;;;5032954;28;20148;-79
2021/10/04 11:21:56;;;;;;;0.82;0.40;;;15.20;99.90;;;;;;5033431;28;20049;-80
2021/10/04 11:24:26;;;;;;;1.92;0.60;;;15.20;99.90;;;;;;5044016;28;20132;-80
2021/10/04 11:26:54;;;;;;;2.28;0.68;;;15.30;99.90;;;;;;5053922;28;20380;-79
2021/10/04 11:29:22;;;;;;;1.92;0.60;;;15.30;99.90;;;;;;5054572;28;20044;-80
2021/10/04 11:31:50;;;;;;;1.50;0.60;;;15.40;99.90;;;;;;5052827;28;20049;-79
2021/10/04 11:34:20;;;;;;;1.42;0.60;;;15.40;99.90;;;;;;5053009;28;20144;-80
2021/10/04 11:36:49;;;;;;;2.13;0.73;;;15.40;99.90;;;;;;5053052;28;20045;-80
2021/10/04 11:39:19;;;;;;;2.45;0.90;;;15.40;99.90;;;;;;5051279;28;20053;-80
2021/10/04 11:41:51;;;;;;;2.50;0.90;;;15.50;99.90;;;;;;5052935;28;20593;-81
2021/10/04 11:44:21;;;;;;;3.00;0.90;;;15.60;99.90;;;;;;5052379;28;20132;-79
2021/10/04 11:46:52;;;;;;;2.53;0.93;;;15.70;99.90;;;;;;5052873;28;20053;-79
2021/10/04 11:49:22;;;;;;;2.42;0.90;;;15.70;99.90;;;;;;5053167;28;20144;-80
2021/10/04 11:51:52;;;;;;;2.40;0.80;;;15.80;99.90;;;;;;5054366;28;20139;-78
2021/10/04 11:54:41;;;;;;;2.88;0.70;;;15.90;99.90;;;;;;5051299;28;20079;-79
2021/10/04 11:57:13;;;;;;;1.77;0.70;;;15.80;99.90;;;;;;5052258;28;20053;-81
2021/10/04 11:59:57;;;;;;;1.15;0.50;;;15.90;99.90;;;;;;5052454;28;20059;-81
2021/10/04 12:02:27;;;;;;;1.30;0.60;;;15.90;99.90;;;;;;5052556;28;20128;-79
2021/10/04 12:05:10;;;;;;;1.42;0.50;;;15.80;99.90;;;;;;5052219;28;20145;-81
2021/10/04 12:07:38;;;;;;;1.83;0.60;;;15.80;99.90;;;;;;5051023;28;20049;-80
2021/10/04 12:10:06;;;;;;;1.77;0.65;;;15.80;99.90;;;;;;5052281;28;20048;-81
2021/10/04 12:12:37;;;;;;;1.17;0.40;;;15.80;99.90;;;;;;5052364;28;20080;-80
2021/10/04 12:15:07;;;;;;;1.40;0.50;;;15.80;99.90;;;;;;5052244;28;20496;-80
2021/10/04 12:17:38;;;;;;;2.30;0.65;;;15.80;99.90;;;;;;5051970;28;20132;-80
2021/10/04 12:20:07;;;;;;;1.00;0.47;;;15.80;99.90;;;;;;5052935;28;20498;-79
2021/10/04 12:22:37;;;;;;;1.50;0.50;;;15.80;99.90;;;;;;5050841;28;20083;-80
2021/10/04 12:25:05;;;;;;;1.88;0.50;;;15.80;99.90;;;;;;5052431;28;20081;-80
2021/10/04 12:27:32;;;;;;;2.33;0.60;;;15.80;99.90;;;;;;5052147;28;20133;-80
2021/10/04 12:30:05;;;;;;;2.03;0.68;;;15.80;99.90;;;;;;5051976;28;20398;-79
2021/10/04 12:32:35;;;;;;;1.23;0.50;;;15.90;99.90;;;;;;5052623;28;20139;-80
2021/10/04 12:35:14;;;;;;;0.77;0.50;;;15.90;99.90;;;;;;5053879;28;20457;-81
2021/10/04 12:37:46;;;;;;;1.25;0.50;;;15.90;99.90;;;;;;5053299;28;20049;-81
2021/10/04 12:40:31;;;;;;;1.17;0.50;;;16.00;99.90;;;;;;5055169;28;20045;-80
2021/10/04 12:43:06;;;;;;;0.80;0.40;;;16.00;99.90;;;;;;5055878;28;20041;-79
2021/10/04 12:45:36;;;;;;;1.65;0.60;;;16.10;99.90;;;;;;5055243;28;20132;-80
2021/10/04 12:48:07;;;;;;;2.30;0.57;;;16.10;99.90;;;;;;5055523;28;20107;-79
2021/10/04 12:50:37;;;;;;;2.80;0.50;;;16.20;99.90;;;;;;5054378;28;20136;-80
2021/10/04 12:53:22;;;;;;;1.83;0.60;;;16.20;99.90;;;;;;5035616;28;20132;-80
2021/10/04 12:55:55;;;;;;;1.52;0.70;;;16.20;99.90;;;;;;5035941;28;20136;-79
2021/10/04 12:58:23;;;;;;;1.33;0.50;;;16.20;99.90;;;;;;5038702;28;20049;-79
2021/10/04 13:00:53;;;;;;;1.65;0.60;;;16.20;99.90;;;;;;5037944;28;20136;-79